createdAt,value
2022-08-22T00:03:06.993Z,61.84
2022-08-22T00:05:52.054Z,61.94
2022-08-22T00:11:26.100Z,61.97
2022-08-22T00:17:24.747Z,61.73
2022-08-22T00:22:47.526Z,61.92
2022-08-22T00:28:25.172Z,61.77
2022-08-22T00:33:53.167Z,61.89
2022-08-22T00:39:28.872Z,62.00
2022-08-22T00:44:59.441Z,61.85
2022-08-22T00:50:26.620Z,62.21
2022-08-22T00:56:15.310Z,62.04
2022-08-22T01:01:43.757Z,62.33
2022-08-22T01:07:22.789Z,62.43
2022-08-22T01:13:21.354Z,62.36
2022-08-22T01:19:04.269Z,62.67
2022-08-22T01:24:37.275Z,62.58
2022-08-22T01:30:30.420Z,62.31
2022-08-22T01:36:15.582Z,62.67
2022-08-22T01:41:42.452Z,62.59
2022-08-22T01:47:13.306Z,62.65
2022-08-22T01:52:46.642Z,62.80
2022-08-22T01:58:21.669Z,62.61
2022-08-22T02:04:09.798Z,62.52
2022-08-22T02:10:04.667Z,62.61
2022-08-22T02:15:41.078Z,62.32
2022-08-22T02:21:21.456Z,62.22
2022-08-22T02:27:04.171Z,62.58
2022-08-22T02:32:40.198Z,62.64
2022-08-22T02:38:13.440Z,62.78
2022-08-22T02:43:59.605Z,62.45
2022-08-22T02:49:27.431Z,62.99
2022-08-22T02:55:04.040Z,62.50
2022-08-22T03:00:44.252Z,62.76
2022-08-22T03:06:26.779Z,63.00
2022-08-22T03:11:53.544Z,62.68
2022-08-22T03:17:22.814Z,62.89
2022-08-22T03:23:02.481Z,62.82
2022-08-22T03:28:58.962Z,62.68
2022-08-22T03:34:27.190Z,63.02
2022-08-22T03:39:51.275Z,62.48
2022-08-22T03:45:45.139Z,62.88
2022-08-22T03:51:14.655Z,62.91
2022-08-22T03:57:18.255Z,62.72
2022-08-22T04:03:27.856Z,63.00
2022-08-22T04:09:13.429Z,63.15
2022-08-22T04:15:02.187Z,63.11
2022-08-22T04:20:44.197Z,63.24
2022-08-22T04:26:15.851Z,63.26
2022-08-22T04:31:47.521Z,62.79
2022-08-22T04:37:19.717Z,63.27
2022-08-22T04:42:57.189Z,63.16
2022-08-22T04:48:33.680Z,63.18
2022-08-22T04:54:30.094Z,63.26
2022-08-22T04:59:51.438Z,63.18
2022-08-22T05:05:17.304Z,63.09
2022-08-22T05:10:42.302Z,63.36
2022-08-22T05:16:06.183Z,63.79
2022-08-22T05:21:32.809Z,63.47
2022-08-22T05:26:57.390Z,63.42
2022-08-22T05:32:53.359Z,63.43
2022-08-22T05:38:17.837Z,63.50
2022-08-22T05:43:43.058Z,63.65
2022-08-22T05:49:08.980Z,63.45
2022-08-22T05:54:35.878Z,63.61
2022-08-22T06:00:13.073Z,63.71
2022-08-22T06:05:40.099Z,63.65
2022-08-22T06:11:33.700Z,63.69
2022-08-22T06:17:18.413Z,63.61
2022-08-22T06:22:51.198Z,63.59
2022-08-22T06:28:17.681Z,63.80
2022-08-22T06:33:42.345Z,63.97
2022-08-22T06:39:23.500Z,63.65
2022-08-22T06:44:57.912Z,63.75
2022-08-22T06:50:24.777Z,63.87
2022-08-22T06:55:52.667Z,63.84
2022-08-22T07:01:17.668Z,63.79
2022-08-22T07:06:41.337Z,63.96
2022-08-22T07:12:11.058Z,63.98
2022-08-22T07:17:32.910Z,64.11
2022-08-22T07:23:05.535Z,64.32
2022-08-22T07:28:51.309Z,64.20
2022-08-22T07:34:33.925Z,64.60
2022-08-22T07:40:08.202Z,64.51
2022-08-22T07:45:35.354Z,64.62
2022-08-22T07:51:19.054Z,64.67
2022-08-22T07:56:57.781Z,64.45
2022-08-22T08:02:20.299Z,64.27
2022-08-22T08:07:45.546Z,64.33
2022-08-22T08:13:12.438Z,64.12
2022-08-22T08:18:36.290Z,64.30
2022-08-22T08:24:00.311Z,64.20
2022-08-22T08:29:21.847Z,63.90
2022-08-22T08:34:44.547Z,63.95
2022-08-22T08:40:21.627Z,63.93
2022-08-22T08:46:14.360Z,64.19
2022-08-22T08:51:44.685Z,64.26
2022-08-22T08:57:46.655Z,63.65
2022-08-22T09:03:30.931Z,64.06
2022-08-22T09:09:10.920Z,64.03
2022-08-22T09:14:58.475Z,63.94
2022-08-22T09:20:34.643Z,63.49
2022-08-22T09:26:17.728Z,63.39
2022-08-22T09:31:52.079Z,63.57
2022-08-22T09:37:26.525Z,63.69
2022-08-22T09:43:06.334Z,63.79
2022-08-22T09:48:32.902Z,63.49
2022-08-22T09:54:31.679Z,63.39
2022-08-22T10:00:15.154Z,63.15
2022-08-22T10:05:45.051Z,63.12
2022-08-22T10:11:26.938Z,63.62
2022-08-22T10:16:58.596Z,64.05
2022-08-22T10:22:23.205Z,64.15
2022-08-22T10:28:10.501Z,64.16
2022-08-22T10:33:36.486Z,64.59
2022-08-22T10:39:02.053Z,64.68
2022-08-22T10:45:23.683Z,65.02
2022-08-22T10:51:08.769Z,65.32
2022-08-22T10:56:54.542Z,65.47
2022-08-22T11:02:24.479Z,65.56
2022-08-22T11:08:11.599Z,65.35
2022-08-22T11:14:10.362Z,65.68
2022-08-22T11:19:49.782Z,66.01
2022-08-22T11:25:38.388Z,65.80
2022-08-22T11:31:24.592Z,65.71
2022-08-22T11:36:56.643Z,66.03
2022-08-22T11:42:31.180Z,65.69
2022-08-22T11:48:02.403Z,66.25
2022-08-22T11:53:38.388Z,66.16
2022-08-22T11:59:24.057Z,66.45
2022-08-22T12:04:55.699Z,66.69
2022-08-22T12:10:21.770Z,66.67
2022-08-22T12:16:09.792Z,66.63
2022-08-22T12:21:49.611Z,66.52
2022-08-22T12:27:18.196Z,66.50
2022-08-22T12:32:51.686Z,66.49
2022-08-22T12:38:36.078Z,66.45
2022-08-22T12:44:21.951Z,66.18
2022-08-22T12:49:55.103Z,66.27
2022-08-22T12:55:55.098Z,66.34
2022-08-22T13:01:16.818Z,66.21
2022-08-22T13:06:38.507Z,66.71
2022-08-22T13:12:04.733Z,66.69
2022-08-22T13:17:26.350Z,66.88
2022-08-22T13:22:47.769Z,67.03
2022-08-22T13:28:11.851Z,66.79
2022-08-22T13:33:38.970Z,67.08
2022-08-22T13:39:13.459Z,67.28
2022-08-22T13:44:45.881Z,67.57
2022-08-22T13:50:13.939Z,67.23
2022-08-22T13:55:49.631Z,67.58
2022-08-22T14:01:10.538Z,67.59
2022-08-22T14:06:46.532Z,67.67
2022-08-22T14:12:15.638Z,67.64
2022-08-22T14:17:43.786Z,67.95
2022-08-22T14:23:27.050Z,67.78
2022-08-22T14:28:48.617Z,68.21
2022-08-22T14:34:13.946Z,68.30
2022-08-22T14:39:43.610Z,67.77
2022-08-22T14:45:16.994Z,68.25
2022-08-22T14:50:46.222Z,68.13
2022-08-22T14:56:29.744Z,68.16
2022-08-22T15:01:57.624Z,68.54
2022-08-22T15:07:37.478Z,67.97
2022-08-22T15:12:59.793Z,67.47
2022-08-22T15:18:34.509Z,67.69
2022-08-22T15:24:06.550Z,67.91
2022-08-22T15:29:31.636Z,67.88
2022-08-22T15:34:53.995Z,68.03
2022-08-22T15:40:34.785Z,68.12
2022-08-22T15:46:28.366Z,67.96
2022-08-22T15:51:59.488Z,68.18
2022-08-22T15:57:29.978Z,68.21
2022-08-22T16:02:57.094Z,68.28
2022-08-22T16:08:44.084Z,68.64
2022-08-22T16:14:35.653Z,68.87
2022-08-22T16:20:09.946Z,68.69
2022-08-22T16:25:47.560Z,68.88
2022-08-22T16:31:24.951Z,68.85
2022-08-22T16:37:11.178Z,69.14
2022-08-22T16:42:40.980Z,69.35
2022-08-22T16:48:15.015Z,69.38
2022-08-22T16:53:35.828Z,69.44
2022-08-22T16:59:22.947Z,69.70
2022-08-22T17:05:00.215Z,69.84
2022-08-22T17:10:48.844Z,69.96
2022-08-22T17:16:50.898Z,69.99
2022-08-22T17:22:29.595Z,70.01
2022-08-22T17:28:06.252Z,70.02
2022-08-22T17:34:04.153Z,70.15
2022-08-22T17:39:29.100Z,70.22
2022-08-22T17:45:03.751Z,70.21
2022-08-22T17:50:38.340Z,70.32
2022-08-22T17:56:15.068Z,70.42
2022-08-22T18:01:46.002Z,70.39
2022-08-22T18:07:15.932Z,70.59
2022-08-22T18:12:43.802Z,70.29
2022-08-22T18:18:19.568Z,70.37
2022-08-22T18:23:54.398Z,70.37
2022-08-22T18:29:23.471Z,70.51
2022-08-22T18:34:44.563Z,70.87
2022-08-22T18:40:20.951Z,70.60
2022-08-22T18:45:47.995Z,70.55
2022-08-22T18:51:28.122Z,70.44
2022-08-22T18:56:51.645Z,70.73
2022-08-22T19:02:55.689Z,70.68
2022-08-22T19:08:22.938Z,70.85
2022-08-22T19:14:17.067Z,70.65
2022-08-22T19:20:22.858Z,70.84
2022-08-22T19:26:28.725Z,70.54
2022-08-22T19:31:58.147Z,70.35
2022-08-22T19:37:33.150Z,70.85
2022-08-22T19:42:55.274Z,70.83
2022-08-22T19:48:17.309Z,70.66
2022-08-22T19:54:01.024Z,70.96
2022-08-22T19:59:22.139Z,70.96
2022-08-22T20:04:45.507Z,71.06
2022-08-22T20:10:19.776Z,71.24
2022-08-22T20:16:01.701Z,71.37
2022-08-22T20:21:45.008Z,71.24
2022-08-22T20:27:14.948Z,71.38
2022-08-22T20:32:41.449Z,71.62
2022-08-22T20:38:08.915Z,71.30
2022-08-22T20:43:41.907Z,71.25
2022-08-22T20:49:06.416Z,71.14
2022-08-22T20:54:31.380Z,71.36
2022-08-22T20:59:54.000Z,71.58
2022-08-22T21:05:14.949Z,71.34
2022-08-22T21:10:56.601Z,71.56
2022-08-22T21:16:32.034Z,71.67
2022-08-22T21:21:53.418Z,71.69
2022-08-22T21:27:24.998Z,71.49
2022-08-22T21:32:51.156Z,71.65
2022-08-22T21:38:17.444Z,71.63
2022-08-22T21:43:39.545Z,71.70
2022-08-22T21:49:05.384Z,71.65
2022-08-22T21:54:27.965Z,71.54
2022-08-22T21:59:59.507Z,71.72
2022-08-22T22:05:20.666Z,71.94
2022-08-22T22:10:44.681Z,71.73
2022-08-22T22:16:07.650Z,71.83
2022-08-22T22:21:28.311Z,72.00
2022-08-22T22:26:49.014Z,72.16
2022-08-22T22:32:09.689Z,72.20
2022-08-22T22:37:31.401Z,72.54
2022-08-22T22:42:55.232Z,72.20
2022-08-22T22:48:23.807Z,72.33
2022-08-22T22:53:46.378Z,72.22
2022-08-22T22:59:12.755Z,72.47
2022-08-22T23:04:37.960Z,72.70
2022-08-22T23:09:58.649Z,72.32
2022-08-22T23:15:22.285Z,72.65
2022-08-22T23:20:43.014Z,72.76
2022-08-22T23:26:03.753Z,73.07
2022-08-22T23:31:34.437Z,72.79
2022-08-22T23:36:57.845Z,72.82
2022-08-22T23:42:19.162Z,72.85
2022-08-22T23:47:40.039Z,73.03
2022-08-22T23:53:00.885Z,72.70
2022-08-22T23:58:21.760Z,73.04
